Time;durP1;ratioP1;P1;durP2;ratioP2;P2;SDS_P1;SDS_P2;PMS_P1;PMS_P2;Temp;Humidity;BMP_temperature;BMP_pressure;BME280_temperature;BME280_humidity;BME280_pressure;Samples;Min_cycle;Max_cycle;Signal;HPM_P1;HPM_P2
2023/07/06 00:00:40;;;;;;;0.00;0.00;;;;;;;17.38;57.05;100624.31;7365751;19;20073;-59
2023/07/06 00:03:06;;;;;;;0.10;0.10;;;;;;;17.36;56.20;100618.28;7360791;19;20086;-59
2023/07/06 00:05:31;;;;;;;0.10;0.10;;;;;;;17.32;56.38;100608.81;7361619;19;20022;-59
2023/07/06 00:07:57;;;;;;;0.10;0.10;;;;;;;17.30;56.52;100605.41;7361538;19;20014;-59
2023/07/06 00:10:23;;;;;;;0.10;0.10;;;;;;;17.28;56.19;100601.97;7361776;19;20029;-59
2023/07/06 00:12:48;;;;;;;0.10;0.10;;;;;;;17.25;56.95;100607.44;7360685;19;20018;-59
2023/07/06 00:15:14;;;;;;;0.10;0.10;;;;;;;17.22;56.96;100601.44;7360826;19;20086;-59
2023/07/06 00:17:39;;;;;;;0.10;0.10;;;;;;;17.15;57.08;100598.28;7359902;19;20357;-59
2023/07/06 00:20:08;;;;;;;0.00;0.00;;;;;;;17.15;57.03;100606.19;7361998;19;20010;-59
2023/07/06 00:22:36;;;;;;;0.10;0.10;;;;;;;17.11;56.97;100609.91;7361846;19;20011;-59
2023/07/06 00:25:02;;;;;;;0.00;0.00;;;;;;;17.06;57.26;100601.38;7361359;19;20021;-59
2023/07/06 00:27:28;;;;;;;0.03;0.03;;;;;;;17.05;57.38;100589.13;7364488;19;20090;-59
2023/07/06 00:30:08;;;;;;;0.08;0.08;;;;;;;17.02;57.34;100605.09;7364234;19;20022;-59
2023/07/06 00:32:33;;;;;;;0.00;0.00;;;;;;;16.96;57.25;100606.28;7366090;19;20018;-59
2023/07/06 00:35:00;;;;;;;0.08;0.08;;;;;;;16.96;57.58;100594.88;7365179;19;20088;-59
2023/07/06 00:37:26;;;;;;;0.10;0.10;;;;;;;16.93;57.55;100601.19;7362779;19;20014;-59
2023/07/06 00:39:52;;;;;;;0.10;0.10;;;;;;;16.89;58.29;100604.91;7364307;19;22336;-59
2023/07/06 00:42:19;;;;;;;0.10;0.10;;;;;;;16.90;58.28;100611.03;7365038;19;20032;-59
2023/07/06 00:44:57;;;;;;;;;;;;;;;16.89;55.79;100604.91;7363609;19;20002;-58
2023/07/06 00:47:36;;;;;;;0.10;0.10;;;;;;;16.89;56.88;100604.03;7364156;19;19926;-59
2023/07/06 00:50:07;;;;;;;0.10;0.10;;;;;;;16.86;57.42;100610.31;7363698;19;20021;-58
2023/07/06 00:52:39;;;;;;;0.00;0.00;;;;;;;16.85;58.03;100608.59;7364330;19;20018;-59
2023/07/06 00:55:07;;;;;;;0.10;0.10;;;;;;;16.82;58.17;100604.31;7363088;19;20011;-59
2023/07/06 00:57:35;;;;;;;0.03;0.03;;;;;;;16.59;58.24;100579.09;7361807;19;20453;-59
2023/07/06 01:00:04;;;;;;;0.03;0.03;;;;;;;16.77;57.61;100606.34;7365226;19;20021;-59
2023/07/06 01:02:30;;;;;;;0.10;0.10;;;;;;;16.73;58.45;100606.59;7362779;19;20018;-59
2023/07/06 01:04:56;;;;;;;0.00;0.00;;;;;;;16.67;57.86;100599.78;7365277;19;20011;-60
2023/07/06 01:07:25;;;;;;;0.00;0.00;;;;;;;16.68;58.35;100600.66;7363285;19;20117;-59
2023/07/06 01:09:52;;;;;;;0.00;0.00;;;;;;;16.64;58.37;100605.22;7362566;19;20043;-59
2023/07/06 01:12:19;;;;;;;0.00;0.00;;;;;;;16.54;58.49;100588.16;7363127;19;20527;-59
2023/07/06 01:14:45;;;;;;;0.10;0.10;;;;;;;16.60;58.58;100601.03;7363281;19;20035;-59
2023/07/06 01:17:39;;;;;;;0.10;0.10;;;;;;;16.61;57.55;100600.94;7363110;19;20017;-59
2023/07/06 01:20:14;;;;;;;0.10;0.10;;;;;;;16.59;58.38;100601.97;7261620;19;2005246;-59
2023/07/06 01:23:08;;;;;;;0.10;0.10;;;;;;;16.57;58.20;100606.44;7364121;19;20143;-59
2023/07/06 01:25:40;;;;;;;0.10;0.10;;;;;;;16.55;58.57;100605.69;7259900;19;2004402;-59
2023/07/06 01:28:11;;;;;;;0.10;0.10;;;;;;;16.52;58.96;100603.19;7363718;19;20504;-59
2023/07/06 01:30:57;;;;;;;0.10;0.10;;;;;;;16.53;57.47;100608.41;7360915;19;20014;-59
2023/07/06 01:33:36;;;;;;;0.10;0.10;;;;;;;16.52;58.16;100600.53;7361599;19;20014;-59
2023/07/06 01:36:11;;;;;;;0.10;0.10;;;;;;;16.51;58.49;100594.41;7362691;19;20405;-59
2023/07/06 01:38:37;;;;;;;0.00;0.00;;;;;;;16.50;58.90;100597.13;7360666;19;20015;-59
2023/07/06 01:41:03;;;;;;;0.10;0.10;;;;;;;16.52;59.06;100590.00;7362522;19;20010;-59
2023/07/06 01:43:28;;;;;;;0.10;0.10;;;;;;;16.51;58.79;100590.94;7362715;19;20024;-59
2023/07/06 01:45:54;;;;;;;0.10;0.10;;;;;;;16.53;58.80;100597.84;7363912;19;20036;-59
2023/07/06 01:48:20;;;;;;;0.10;0.10;;;;;;;16.53;58.42;100586.47;7363650;19;20015;-59
2023/07/06 01:50:48;;;;;;;0.03;0.03;;;;;;;16.53;58.52;100581.19;7359904;19;20026;-53
2023/07/06 01:53:40;;;;;;;0.05;0.05;;;;;;;16.54;57.53;100577.63;7362842;19;20007;-59
2023/07/06 01:56:13;;;;;;;0.03;0.03;;;;;;;16.52;58.02;100574.19;7259325;19;2004233;-59
2023/07/06 01:58:51;;;;;;;0.08;0.08;;;;;;;16.50;57.65;100570.78;7358919;19;20033;-59
2023/07/06 02:01:21;;;;;;;0.08;0.08;;;;;;;16.47;58.37;100570.91;7353741;19;20014;-59
2023/07/06 02:03:50;;;;;;;0.10;0.10;;;;;;;16.45;57.96;100567.50;7356771;19;20472;-59
2023/07/06 02:06:17;;;;;;;0.00;0.00;;;;;;;16.42;58.63;100571.13;7356953;19;20011;-59
2023/07/06 02:08:42;;;;;;;0.10;0.10;;;;;;;16.31;58.60;100545.31;7358048;19;20011;-59
2023/07/06 02:11:18;;;;;;;0.10;0.10;;;;;;;16.40;58.27;100572.16;7356805;19;20016;-59
2023/07/06 02:13:43;;;;;;;0.00;0.00;;;;;;;16.39;58.20;100567.81;7357267;19;20007;-59
2023/07/06 02:16:09;;;;;;;0.10;0.10;;;;;;;16.37;58.43;100559.13;7357739;19;22177;-59
2023/07/06 02:18:35;;;;;;;0.20;0.20;;;;;;;16.32;58.15;100556.69;7356339;19;20611;-58
2023/07/06 02:21:01;;;;;;;0.10;0.10;;;;;;;16.29;58.34;100552.44;7358353;19;20032;-59
2023/07/06 02:23:28;;;;;;;0.10;0.10;;;;;;;16.30;58.46;100559.44;7355533;19;20672;-60
2023/07/06 02:25:56;;;;;;;0.10;0.10;;;;;;;16.28;58.93;100556.03;7359901;19;20556;-58
2023/07/06 02:28:22;;;;;;;0.10;0.10;;;;;;;16.18;58.87;100538.97;7360482;19;20003;-59
2023/07/06 02:30:49;;;;;;;0.10;0.10;;;;;;;16.21;58.37;100543.22;7361185;19;20006;-59
2023/07/06 02:33:17;;;;;;;0.05;0.05;;;;;;;16.24;58.77;100551.81;7361056;19;20015;-59
2023/07/06 02:35:46;;;;;;;0.00;0.00;;;;;;;16.23;58.98;100551.91;7359637;19;20014;-59
2023/07/06 02:38:20;;;;;;;0.10;0.10;;;;;;;16.23;58.56;100552.75;7359925;19;21006;-59
2023/07/06 02:40:48;;;;;;;0.10;0.10;;;;;;;16.07;58.71;100520.19;7359783;19;20006;-58
2023/07/06 02:43:13;;;;;;;0.10;0.10;;;;;;;16.12;58.84;100538.38;7359886;19;20370;-59
2023/07/06 02:45:39;;;;;;;0.10;0.10;;;;;;;16.17;59.11;100541.63;7359910;19;20010;-59
2023/07/06 02:48:05;;;;;;;0.10;0.10;;;;;;;16.14;59.25;100531.28;7360088;19;20025;-59
2023/07/06 02:50:31;;;;;;;0.00;0.00;;;;;;;16.11;58.86;100531.41;7360807;19;20018;-59
2023/07/06 02:52:57;;;;;;;0.10;0.10;;;;;;;16.13;59.20;100530.41;7360366;19;20037;-59
2023/07/06 02:55:23;;;;;;;0.10;0.10;;;;;;;16.12;59.60;100531.34;7359705;19;20015;-59
2023/07/06 02:57:49;;;;;;;0.10;0.10;;;;;;;16.13;59.11;100535.69;7359425;19;20057;-59
2023/07/06 03:00:16;;;;;;;0.10;0.10;;;;;;;16.12;59.42;100530.47;7361593;19;20362;-59
2023/07/06 03:02:45;;;;;;;0.10;0.10;;;;;;;16.01;59.01;100515.19;7359739;19;21216;-59
2023/07/06 03:05:11;;;;;;;0.10;0.10;;;;;;;16.14;59.52;100534.75;7358207;19;20015;-59
2023/07/06 03:07:38;;;;;;;0.10;0.10;;;;;;;16.14;59.14;100531.28;7361328;19;20033;-59
2023/07/06 03:10:05;;;;;;;0.10;0.10;;;;;;;16.14;59.53;100526.84;7359137;19;20106;-59
2023/07/06 03:12:33;;;;;;;;;;;;;;;15.73;57.66;100461.22;7360787;19;20070;-59
2023/07/06 03:15:00;;;;;;;0.10;0.10;;;;;;;16.14;59.40;100526.84;7366098;19;19946;-59
2023/07/06 03:17:25;;;;;;;0.10;0.10;;;;;;;16.16;60.15;100529.41;7364774;19;20022;-57
2023/07/06 03:19:51;;;;;;;0.10;0.10;;;;;;;16.15;60.04;100533.81;7358387;19;20031;-59
2023/07/06 03:22:17;;;;;;;0.10;0.10;;;;;;;16.07;60.09;100514.91;7365214;19;20524;-58
2023/07/06 03:24:44;;;;;;;0.05;0.05;;;;;;;16.17;60.09;100525.84;7365095;19;20010;-59
2023/07/06 03:27:10;;;;;;;0.10;0.10;;;;;;;16.17;60.17;100526.72;7366746;19;20921;-59
2023/07/06 03:29:36;;;;;;;0.00;0.00;;;;;;;16.18;59.78;100524.94;7365011;19;20019;-59
2023/07/06 03:32:06;;;;;;;0.10;0.10;;;;;;;16.20;59.76;100526.53;7363383;19;20466;-59
2023/07/06 03:34:32;;;;;;;0.10;0.10;;;;;;;16.21;60.23;100528.25;7365723;19;20121;-59
2023/07/06 03:36:58;;;;;;;0.10;0.10;;;;;;;16.20;59.73;100521.28;7364723;19;20090;-59
2023/07/06 03:39:23;;;;;;;0.00;0.00;;;;;;;16.12;60.22;100506.75;7366670;19;20014;-59
2023/07/06 03:41:49;;;;;;;0.00;0.00;;;;;;;16.23;60.07;100523.78;7367357;19;20024;-59
2023/07/06 03:44:14;;;;;;;0.10;0.10;;;;;;;16.23;60.24;100520.28;7363030;19;20035;-59
2023/07/06 03:46:41;;;;;;;0.08;0.08;;;;;;;16.24;59.98;100522.84;7365598;19;20034;-59
2023/07/06 03:49:10;;;;;;;0.08;0.08;;;;;;;16.25;60.24;100514.00;7360959;19;20104;-59
2023/07/06 03:51:36;;;;;;;0.10;0.10;;;;;;;16.24;60.15;100506.19;7367241;19;20239;-59
2023/07/06 03:54:06;;;;;;;0.10;0.10;;;;;;;16.19;59.96;100502.91;7365902;19;20027;-59
2023/07/06 03:56:33;;;;;;;0.10;0.10;;;;;;;16.23;60.32;100501.84;7364382;19;20006;-59
2023/07/06 03:58:59;;;;;;;0.08;0.08;;;;;;;16.26;60.37;100505.16;7365341;19;20026;-58
2023/07/06 04:01:26;;;;;;;0.00;0.00;;;;;;;16.27;60.22;100506.00;7363483;19;20038;-59
2023/07/06 04:03:52;;;;;;;0.03;0.03;;;;;;;16.27;60.57;100508.66;7360270;19;20464;-58
2023/07/06 04:06:19;;;;;;;0.10;0.10;;;;;;;16.27;59.95;100506.91;7361906;19;20013;-59
2023/07/06 04:08:44;;;;;;;0.10;0.10;;;;;;;16.26;60.24;100505.16;7360350;19;20091;-59
2023/07/06 04:11:10;;;;;;;0.00;0.00;;;;;;;16.25;60.14;100498.19;7360291;19;20070;-59
2023/07/06 04:13:35;;;;;;;0.10;0.10;;;;;;;16.27;60.34;100496.34;7360967;19;20045;-60
2023/07/06 04:16:00;;;;;;;0.10;0.10;;;;;;;16.27;60.61;100501.63;7360078;19;20029;-59
2023/07/06 04:18:26;;;;;;;0.10;0.10;;;;;;;16.28;60.97;100498.06;7361305;19;20010;-59
2023/07/06 04:20:53;;;;;;;0.10;0.10;;;;;;;16.29;60.49;100493.63;7360420;19;20022;-59
2023/07/06 04:23:18;;;;;;;0.10;0.10;;;;;;;16.27;60.56;100488.44;7361894;19;20010;-59
2023/07/06 04:25:44;;;;;;;0.10;0.10;;;;;;;16.31;60.24;100492.63;7361589;19;20582;-59
2023/07/06 04:28:11;;;;;;;0.08;0.08;;;;;;;16.31;60.16;100487.34;7365358;19;20454;-59
2023/07/06 04:30:39;;;;;;;;;;;;;;;16.35;58.25;100494.16;7365393;19;20055;-59
2023/07/06 04:33:06;;;;;;;;;;;;;;;16.33;57.98;100485.50;7365517;19;19930;-59
2023/07/06 04:35:32;;;;;;;;;;;;;;;16.33;57.88;100495.19;7364079;19;19927;-59
2023/07/06 04:37:59;;;;;;;0.08;0.08;;;;;;;16.29;59.22;100494.47;7364981;19;25459;-58
2023/07/06 04:40:26;;;;;;;0.10;0.10;;;;;;;16.26;59.41;100494.63;7364051;19;20014;-59
2023/07/06 04:42:54;;;;;;;0.10;0.10;;;;;;;16.14;60.26;100478.59;7364302;19;20034;-58
2023/07/06 04:45:21;;;;;;;0.00;0.00;;;;;;;16.18;60.37;100491.53;7361209;19;20018;-59
2023/07/06 04:47:47;;;;;;;0.10;0.10;;;;;;;16.19;60.06;100487.13;7364047;19;20006;-59
2023/07/06 04:50:17;;;;;;;0.10;0.10;;;;;;;16.19;60.04;100487.97;7364335;19;20014;-59
2023/07/06 04:52:43;;;;;;;0.10;0.10;;;;;;;16.20;59.95;100489.66;7364142;19;20034;-59
2023/07/06 04:55:10;;;;;;;0.10;0.10;;;;;;;16.14;59.63;100475.94;7362176;19;20036;-58
2023/07/06 04:57:36;;;;;;;0.10;0.10;;;;;;;16.20;59.90;100488.81;7364897;19;20010;-58
2023/07/06 05:00:12;;;;;;;0.10;0.10;;;;;;;16.17;59.65;100483.69;7363825;19;20362;-59
2023/07/06 05:02:38;;;;;;;0.10;0.10;;;;;;;16.20;59.29;100480.91;7363167;19;20250;-59
2023/07/06 05:05:03;;;;;;;0.10;0.10;;;;;;;16.21;59.41;100491.34;7362839;19;20006;-59
2023/07/06 05:07:30;;;;;;;0.10;0.10;;;;;;;16.20;59.02;100480.91;7363401;19;20028;-59
2023/07/06 05:09:56;;;;;;;0.10;0.10;;;;;;;16.21;59.30;100486.09;7363788;19;20006;-59
2023/07/06 05:12:22;;;;;;;0.10;0.10;;;;;;;16.21;59.44;100491.34;7363624;19;20446;-59
2023/07/06 05:14:47;;;;;;;0.10;0.10;;;;;;;16.22;59.35;100497.47;7361999;19;20002;-60
2023/07/06 05:17:13;;;;;;;0.10;0.10;;;;;;;16.22;59.05;100487.81;7362622;19;20548;-59
2023/07/06 05:19:38;;;;;;;0.10;0.10;;;;;;;16.23;59.04;100489.53;7362005;19;20010;-59
2023/07/06 05:22:04;;;;;;;0.10;0.10;;;;;;;16.23;59.45;100486.88;7364158;19;20006;-59
2023/07/06 05:24:30;;;;;;;0.10;0.10;;;;;;;16.24;58.97;100480.69;7362831;19;20006;-59
2023/07/06 05:26:55;;;;;;;0.10;0.10;;;;;;;16.25;59.19;100477.13;7361925;19;20021;-59
2023/07/06 05:29:21;;;;;;;0.10;0.10;;;;;;;16.26;58.71;100475.31;7362286;19;22214;-59
2023/07/06 05:31:48;;;;;;;0.10;0.10;;;;;;;16.26;59.05;100475.31;7363479;19;20010;-59
2023/07/06 05:34:14;;;;;;;0.10;0.10;;;;;;;16.26;58.95;100473.53;7361906;19;20018;-59
2023/07/06 05:36:39;;;;;;;0.10;0.10;;;;;;;16.26;58.48;100477.97;7360193;19;20592;-59
2023/07/06 05:39:05;;;;;;;0.10;0.10;;;;;;;16.26;59.07;100473.53;7361336;19;20018;-58
2023/07/06 05:41:31;;;;;;;0.10;0.10;;;;;;;16.23;58.74;100473.72;7362787;19;20026;-59
2023/07/06 05:43:56;;;;;;;0.08;0.08;;;;;;;16.25;59.29;100482.38;7361917;19;20014;-59
2023/07/06 05:46:23;;;;;;;0.10;0.10;;;;;;;16.26;58.83;100477.97;7362656;19;20022;-59
2023/07/06 05:48:49;;;;;;;0.10;0.10;;;;;;;16.26;59.12;100484.09;7361008;19;20022;-59
2023/07/06 05:51:15;;;;;;;0.10;0.10;;;;;;;16.28;59.17;100476.97;7363237;19;20439;-59
2023/07/06 05:53:41;;;;;;;0.10;0.10;;;;;;;16.30;59.00;100476.88;7363025;19;20025;-59
2023/07/06 05:56:06;;;;;;;0.10;0.10;;;;;;;16.31;59.08;100476.81;7361739;19;20037;-59
2023/07/06 05:58:32;;;;;;;0.10;0.10;;;;;;;16.35;59.40;100467.81;7358444;19;20592;-59
2023/07/06 06:00:59;;;;;;;0.10;0.10;;;;;;;16.37;59.43;100469.50;7361099;19;20034;-59
2023/07/06 06:03:25;;;;;;;0.10;0.10;;;;;;;16.39;59.25;100459.78;7355024;19;20014;-59
2023/07/06 06:05:52;;;;;;;0.10;0.10;;;;;;;16.44;58.97;100465.66;7356748;19;20907;-59
2023/07/06 06:08:18;;;;;;;0.10;0.10;;;;;;;16.48;59.42;100468.06;7357338;19;20014;-59
2023/07/06 06:10:44;;;;;;;0.10;0.10;;;;;;;16.50;59.12;100471.47;7356622;19;20025;-59
2023/07/06 06:13:10;;;;;;;0.15;0.15;;;;;;;16.56;58.84;100462.38;7357576;19;20010;-59
2023/07/06 06:15:36;;;;;;;0.10;0.10;;;;;;;16.60;58.94;100467.44;7355906;19;20014;-53
2023/07/06 06:18:02;;;;;;;0.10;0.10;;;;;;;16.66;58.14;100468.88;7357014;19;20020;-59
2023/07/06 06:20:28;;;;;;;0.10;0.10;;;;;;;16.67;58.38;100460.03;7358075;19;20006;-58
2023/07/06 06:22:54;;;;;;;0.10;0.10;;;;;;;16.74;58.85;100458.84;7356399;19;20010;-59
2023/07/06 06:25:20;;;;;;;0.10;0.10;;;;;;;16.76;57.93;100454.34;7359065;19;20018;-59
2023/07/06 06:27:46;;;;;;;0.10;0.10;;;;;;;16.83;57.97;100450.47;7361891;19;20031;-59
2023/07/06 06:30:14;;;;;;;0.10;0.10;;;;;;;16.88;56.83;100454.63;7361489;19;20018;-59
2023/07/06 06:32:40;;;;;;;0.10;0.10;;;;;;;16.94;57.74;100459.59;7360456;19;20039;-56
2023/07/06 06:35:21;;;;;;;0.10;0.10;;;;;;;17.00;57.23;100462.75;7359024;19;20014;-59
2023/07/06 06:37:47;;;;;;;0.10;0.10;;;;;;;16.99;57.07;100458.41;7360753;19;20462;-59
2023/07/06 06:40:12;;;;;;;0.10;0.10;;;;;;;17.02;56.26;100454.75;7360456;19;22059;-59
2023/07/06 06:42:39;;;;;;;0.13;0.13;;;;;;;17.05;56.68;100457.22;7358220;19;20022;-59
2023/07/06 06:45:05;;;;;;;0.10;0.10;;;;;;;17.09;56.48;100453.50;7359736;19;20386;-58
2023/07/06 06:47:32;;;;;;;0.08;0.08;;;;;;;17.11;55.99;100456.91;7359184;19;20002;-59
2023/07/06 06:49:58;;;;;;;0.10;0.10;;;;;;;17.13;56.45;100452.38;7359926;19;20017;-59
2023/07/06 06:52:23;;;;;;;0.10;0.10;;;;;;;17.16;56.70;100449.59;7359465;19;20394;-59
2023/07/06 06:54:52;;;;;;;0.10;0.10;;;;;;;17.23;56.95;100450.09;7359394;19;20728;-58
2023/07/06 06:57:17;;;;;;;0.03;0.03;;;;;;;17.30;56.83;100452.34;7358650;19;20903;-57
2023/07/06 06:59:43;;;;;;;0.10;0.10;;;;;;;17.40;56.22;100447.41;7360389;19;20002;-59
2023/07/06 07:02:09;;;;;;;0.00;0.00;;;;;;;17.49;56.01;100438.97;7360939;19;20021;-59
2023/07/06 07:04:34;;;;;;;0.10;0.10;;;;;;;17.58;55.86;100445.50;7359669;19;20011;-59
2023/07/06 07:07:03;;;;;;;0.10;0.10;;;;;;;17.67;56.16;100452.94;7358206;19;20495;-59
2023/07/06 07:09:29;;;;;;;0.10;0.10;;;;;;;17.74;55.30;100446.41;7359862;19;20373;-59
2023/07/06 07:11:55;;;;;;;0.08;0.08;;;;;;;17.85;55.10;100448.44;7361086;19;20085;-59
2023/07/06 07:14:20;;;;;;;0.00;0.00;;;;;;;17.87;55.04;100436.00;7357111;19;20483;-59
2023/07/06 07:16:46;;;;;;;0.10;0.10;;;;;;;17.94;55.10;100433.84;7359102;19;20007;-59
2023/07/06 07:19:13;;;;;;;0.10;0.10;;;;;;;18.04;55.09;100448.22;7358193;19;20029;-59
2023/07/06 07:21:39;;;;;;;0.10;0.10;;;;;;;18.12;55.33;100446.00;7360042;19;20018;-59
2023/07/06 07:24:04;;;;;;;0.10;0.10;;;;;;;18.19;54.56;100442.03;7358155;19;20040;-59
2023/07/06 07:26:30;;;;;;;0.10;0.10;;;;;;;18.25;54.44;100447.00;7357053;19;20015;-59
2023/07/06 07:28:56;;;;;;;0.10;0.10;;;;;;;18.31;54.43;100446.63;7357802;19;20014;-59
2023/07/06 07:31:22;;;;;;;0.10;0.10;;;;;;;18.37;54.48;100446.25;7358510;19;20117;-59
2023/07/06 07:33:49;;;;;;;0.10;0.10;;;;;;;18.45;54.70;100447.59;7357556;19;20033;-59
2023/07/06 07:36:17;;;;;;;0.10;0.10;;;;;;;18.52;53.45;100446.31;7358136;19;20011;-59
2023/07/06 07:38:43;;;;;;;0.10;0.10;;;;;;;18.56;53.49;100442.53;7358977;19;20026;-58
2023/07/06 07:41:13;;;;;;;0.10;0.10;;;;;;;18.63;53.72;100434.13;7358697;19;20014;-59
2023/07/06 07:43:42;;;;;;;0.10;0.10;;;;;;;18.62;53.92;100423.66;7357789;19;20010;-59
2023/07/06 07:46:13;;;;;;;0.10;0.10;;;;;;;18.73;53.86;100431.81;7357389;19;20021;-57
2023/07/06 07:48:45;;;;;;;0.10;0.10;;;;;;;18.82;53.58;100435.69;7358012;19;20020;-58
2023/07/06 07:51:16;;;;;;;0.10;0.10;;;;;;;18.87;53.53;100438.91;7356970;19;20014;-59
2023/07/06 07:53:44;;;;;;;0.10;0.10;;;;;;;18.92;53.10;100421.81;7358148;19;20015;-59
2023/07/06 07:56:10;;;;;;;0.10;0.10;;;;;;;19.01;53.64;100427.44;7356084;19;20022;-59
2023/07/06 07:58:37;;;;;;;0.10;0.10;;;;;;;19.08;53.23;100426.13;7359124;19;20030;-59
2023/07/06 08:01:11;;;;;;;0.10;0.10;;;;;;;19.15;53.21;100424.81;7360012;19;20687;-59
2023/07/06 08:03:37;;;;;;;0.10;0.10;;;;;;;19.14;52.91;100412.53;7361688;19;20751;-59
2023/07/06 08:06:05;;;;;;;0.10;0.10;;;;;;;19.34;52.37;100433.28;7357609;19;22165;-58
2023/07/06 08:08:32;;;;;;;0.10;0.10;;;;;;;19.38;52.41;100434.81;7358547;19;20045;-59
2023/07/06 08:11:02;;;;;;;0.08;0.08;;;;;;;19.45;52.25;100428.16;7360981;19;20022;-59
2023/07/06 08:13:29;;;;;;;0.10;0.10;;;;;;;19.45;52.22;100433.44;7358553;19;20034;-58
2023/07/06 08:15:55;;;;;;;0.10;0.10;;;;;;;19.45;52.73;100420.22;7360955;19;20325;-59
2023/07/06 08:18:24;;;;;;;0.10;0.10;;;;;;;19.54;52.26;100423.22;7358152;19;20018;-59
2023/07/06 08:20:53;;;;;;;0.10;0.10;;;;;;;19.62;52.35;100420.97;7361267;19;20105;-59
2023/07/06 08:23:20;;;;;;;0.10;0.10;;;;;;;19.68;51.80;100429.38;7357775;19;20545;-59
2023/07/06 08:25:46;;;;;;;0.10;0.10;;;;;;;19.73;51.37;100423.78;7362290;19;20039;-59
2023/07/06 08:28:12;;;;;;;0.10;0.10;;;;;;;19.76;51.48;100418.25;7363837;19;20010;-59
2023/07/06 08:30:40;;;;;;;0.10;0.10;;;;;;;19.81;51.58;100425.91;7361733;19;20022;-59
2023/07/06 08:33:09;;;;;;;0.10;0.10;;;;;;;19.82;51.46;100417.88;7364712;19;20110;-59
2023/07/06 08:35:39;;;;;;;0.10;0.10;;;;;;;19.86;51.84;100405.25;7363082;19;20011;-59
2023/07/06 08:38:05;;;;;;;0.10;0.10;;;;;;;19.90;51.70;100410.25;7363327;19;20039;-59
2023/07/06 08:40:32;;;;;;;0.10;0.10;;;;;;;20.00;50.63;100409.66;7364493;19;20018;-59
2023/07/06 08:43:00;;;;;;;0.15;0.15;;;;;;;19.96;49.55;100386.00;7364675;19;20010;-59
2023/07/06 08:45:41;;;;;;;0.00;0.00;;;;;;;20.11;49.85;100391.22;7362517;19;20034;-59
2023/07/06 08:48:12;;;;;;;0.10;0.10;;;;;;;20.11;49.67;100400.03;7364554;19;20014;-59
2023/07/06 08:50:40;;;;;;;0.10;0.10;;;;;;;20.11;49.52;100396.53;7362129;19;20014;-59
2023/07/06 08:53:10;;;;;;;0.10;0.10;;;;;;;20.12;50.51;100392.91;7364211;19;20014;-59
2023/07/06 08:55:36;;;;;;;0.10;0.10;;;;;;;20.13;49.57;100389.34;7361880;19;20023;-58
2023/07/06 08:58:03;;;;;;;0.10;0.10;;;;;;;20.23;48.83;100393.06;7364480;19;20006;-59
2023/07/06 09:00:31;;;;;;;0.10;0.10;;;;;;;20.31;49.40;100401.31;7363945;19;20425;-59
2023/07/06 09:03:05;;;;;;;0.10;0.10;;;;;;;20.41;49.04;100386.47;7361851;19;20007;-59
2023/07/06 09:05:33;;;;;;;0.10;0.10;;;;;;;20.46;48.67;100395.00;7363769;19;20967;-59
2023/07/06 09:08:00;;;;;;;0.13;0.13;;;;;;;20.50;48.68;100390.34;7360940;19;20018;-59
2023/07/06 09:10:28;;;;;;;0.10;0.10;;;;;;;20.63;47.38;100385.91;7363200;19;20919;-58
2023/07/06 09:12:56;;;;;;;0.10;0.10;;;;;;;20.68;47.23;100382.91;7362626;19;20015;-59
2023/07/06 09:15:33;;;;;;;0.10;0.10;;;;;;;20.78;48.64;100376.00;7362607;19;20019;-59
2023/07/06 09:18:03;;;;;;;0.10;0.10;;;;;;;20.81;48.17;100375.78;7361589;19;20015;-59
2023/07/06 09:20:29;;;;;;;0.10;0.10;;;;;;;20.89;47.67;100362.84;7363717;19;20018;-59
2023/07/06 09:22:54;;;;;;;0.10;0.10;;;;;;;21.04;48.21;100366.19;7363296;19;20006;-59
2023/07/06 09:25:36;;;;;;;0.10;0.10;;;;;;;21.27;48.76;100376.97;7361111;19;20015;-59
2023/07/06 09:28:07;;;;;;;0.10;0.10;;;;;;;21.37;46.73;100368.25;7361440;19;20011;-59
2023/07/06 09:30:38;;;;;;;0.10;0.10;;;;;;;21.55;46.21;100370.53;7360477;19;20015;-59
2023/07/06 09:33:13;;;;;;;0.10;0.10;;;;;;;21.66;45.59;100368.75;7362715;19;20022;-59
2023/07/06 09:35:39;;;;;;;0.10;0.10;;;;;;;21.74;45.77;100365.53;7359931;19;20800;-59
2023/07/06 09:38:08;;;;;;;0.10;0.10;;;;;;;21.81;45.67;100361.47;7362062;19;24753;-59
2023/07/06 09:40:33;;;;;;;0.10;0.10;;;;;;;21.88;44.42;100365.34;7359723;19;20018;-59
2023/07/06 09:42:59;;;;;;;0.10;0.10;;;;;;;21.84;43.73;100361.22;7362910;19;20069;-59
2023/07/06 09:45:30;;;;;;;0.10;0.10;;;;;;;21.87;45.29;100357.50;7360590;19;20486;-59
2023/07/06 09:48:13;;;;;;;0.10;0.10;;;;;;;21.86;45.59;100363.78;7362481;19;20014;-60
2023/07/06 09:50:43;;;;;;;0.10;0.10;;;;;;;21.81;45.34;100349.97;7362212;19;20010;-59
2023/07/06 09:53:19;;;;;;;0.10;0.10;;;;;;;21.86;44.47;100351.31;7363082;19;20018;-59
2023/07/06 09:55:44;;;;;;;0.10;0.10;;;;;;;21.84;44.21;100339.94;7360506;19;20006;-59
2023/07/06 09:58:24;;;;;;;0.10;0.10;;;;;;;21.90;45.20;100338.66;7362040;19;20018;-59
2023/07/06 10:01:01;;;;;;;0.10;0.10;;;;;;;21.93;46.02;100339.25;7360829;19;20507;-59
2023/07/06 10:03:36;;;;;;;0.10;0.10;;;;;;;21.99;45.76;100328.16;7355507;19;20011;-59
2023/07/06 10:06:35;;;;;;;0.10;0.10;;;;;;;22.06;45.47;100315.25;7355129;19;20010;-59
2023/07/06 10:09:14;;;;;;;0.10;0.10;;;;;;;22.11;45.03;100312.28;7256595;19;2004212;-59
2023/07/06 10:11:55;;;;;;;0.10;0.10;;;;;;;22.09;44.84;100298.19;7358519;19;20492;-59
2023/07/06 10:14:33;;;;;;;0.10;0.10;;;;;;;22.13;44.06;100313.00;7355411;19;20022;-59
2023/07/06 10:17:23;;;;;;;0.10;0.10;;;;;;;22.10;44.61;100308.75;7356522;19;20010;-59
2023/07/06 10:19:57;;;;;;;0.10;0.10;;;;;;;22.00;43.32;100302.44;7355159;19;20010;-59
2023/07/06 10:22:50;;;;;;;0.10;0.10;;;;;;;21.98;44.24;100299.03;7356697;19;20022;-59
2023/07/06 10:25:39;;;;;;;0.10;0.10;;;;;;;21.88;44.53;100298.88;7258122;19;2004518;-59
2023/07/06 10:28:12;;;;;;;0.10;0.10;;;;;;;21.82;44.56;100299.34;7260283;19;2004425;-59
2023/07/06 10:30:45;;;;;;;0.10;0.10;;;;;;;21.78;44.59;100292.56;7358307;19;20010;-59
2023/07/06 10:33:25;;;;;;;0.10;0.10;;;;;;;21.78;45.61;100295.22;7361186;19;20018;-59
2023/07/06 10:35:52;;;;;;;0.10;0.10;;;;;;;21.76;44.42;100279.41;7361022;19;20020;-59
2023/07/06 10:38:19;;;;;;;0.10;0.10;;;;;;;21.76;45.09;100275.91;7361025;19;20038;-59
2023/07/06 10:41:12;;;;;;;0.10;0.10;;;;;;;21.78;44.51;100279.28;7361517;19;20045;-59
2023/07/06 10:43:42;;;;;;;0.10;0.10;;;;;;;21.78;44.07;100281.94;7259834;19;2004571;-59
2023/07/06 10:46:30;;;;;;;0.10;0.10;;;;;;;21.82;44.91;100267.47;7360878;19;20015;-59
2023/07/06 10:48:59;;;;;;;0.10;0.10;;;;;;;21.76;44.93;100270.59;7360222;19;20043;-59
2023/07/06 10:51:27;;;;;;;0.10;0.10;;;;;;;21.80;44.93;100271.22;7361488;19;20014;-59
2023/07/06 10:54:18;;;;;;;0.10;0.10;;;;;;;21.84;44.76;100264.66;7359571;19;20014;-59
2023/07/06 10:56:47;;;;;;;0.10;0.10;;;;;;;21.82;44.87;100255.97;7258276;19;2004540;-56
2023/07/06 10:59:23;;;;;;;0.10;0.10;;;;;;;21.82;45.46;100264.78;7360899;19;20018;-59
2023/07/06 11:02:05;;;;;;;0.10;0.10;;;;;;;21.78;45.52;100276.63;7359894;19;20017;-59
2023/07/06 11:04:41;;;;;;;0.10;0.10;;;;;;;21.73;45.65;100252.22;7361049;19;20007;-59
2023/07/06 11:07:12;;;;;;;0.10;0.10;;;;;;;21.67;45.36;100253.53;7359650;19;20037;-59
2023/07/06 11:10:15;;;;;;;0.10;0.10;;;;;;;21.67;45.78;100253.53;7361013;19;20497;-59
2023/07/06 11:13:15;;;;;;;0.10;0.10;;;;;;;21.65;45.41;100257.28;7258310;19;2004411;-59
2023/07/06 11:15:46;;;;;;;0.10;0.10;;;;;;;21.63;45.16;100268.00;7257401;19;2004500;-59
2023/07/06 11:18:24;;;;;;;0.10;0.10;;;;;;;21.60;44.98;100256.78;7355994;19;20033;-59
2023/07/06 11:20:54;;;;;;;0.10;0.10;;;;;;;21.42;44.95;100229.78;7361465;19;20450;-57
2023/07/06 11:23:30;;;;;;;0.10;0.10;;;;;;;21.50;45.08;100246.00;7359201;19;20537;-57
2023/07/06 11:25:56;;;;;;;0.10;0.10;;;;;;;21.37;45.53;100237.25;7359807;19;20485;-57
2023/07/06 11:28:24;;;;;;;0.10;0.10;;;;;;;21.45;45.87;100253.47;7359147;19;20026;-57
2023/07/06 11:31:49;;;;;;;0.08;0.08;;;;;;;21.46;45.99;100244.53;7359528;19;20597;-59
2023/07/06 11:34:43;;;;;;;0.10;0.10;;;;;;;21.43;46.50;100245.59;7149746;19;2004626;-59
2023/07/06 11:37:27;;;;;;;0.10;0.10;;;;;;;21.38;47.20;100250.41;7263545;19;2004551;-59